sensor_id;sensor_type;location;lat;lon;timestamp;temperature;humidity
76759;DHT22;65701;45.588;5.186;2023-07-22T08:26:49;27.08;52.51
76759;DHT22;65701;45.588;5.186;2023-07-22T08:29:15;27.23;52.64
76759;DHT22;65701;45.588;5.186;2023-07-22T08:31:41;27.35;52.64
76759;DHT22;65701;45.588;5.186;2023-07-22T08:34:06;27.49;52.56
76759;DHT22;65701;45.588;5.186;2023-07-22T08:36:31;27.61;52.34
76759;DHT22;65701;45.588;5.186;2023-07-22T08:38:57;27.78;51.87
76759;DHT22;65701;45.588;5.186;2023-07-22T08:41:22;27.86;51.58
76759;DHT22;65701;45.588;5.186;2023-07-22T08:43:50;27.92;50.33
76759;DHT22;65701;45.588;5.186;2023-07-22T08:46:19;28.01;50.05
76759;DHT22;65701;45.588;5.186;2023-07-22T08:48:47;27.86;47.76
76759;DHT22;65701;45.588;5.186;2023-07-22T08:51:16;27.85;46.84
76759;DHT22;65701;45.588;5.186;2023-07-22T08:53:43;27.80;45.64
76759;DHT22;65701;45.588;5.186;2023-07-22T08:56:09;27.87;46.11
76759;DHT22;65701;45.588;5.186;2023-07-22T08:58:36;27.94;46.93
76759;DHT22;65701;45.588;5.186;2023-07-22T09:01:02;28.01;46.22
76759;DHT22;65701;45.588;5.186;2023-07-22T09:03:28;28.11;46.91
76759;DHT22;65701;45.588;5.186;2023-07-22T09:05:54;28.16;46.34
76759;DHT22;65701;45.588;5.186;2023-07-22T09:08:20;28.27;46.54
76759;DHT22;65701;45.588;5.186;2023-07-22T09:10:46;28.33;46.62
76759;DHT22;65701;45.588;5.186;2023-07-22T09:13:13;28.44;47.20
76759;DHT22;65701;45.588;5.186;2023-07-22T09:15:39;28.56;46.86
76759;DHT22;65701;45.588;5.186;2023-07-22T09:18:06;28.68;46.45
76759;DHT22;65701;45.588;5.186;2023-07-22T09:20:32;28.48;45.32
76759;DHT22;65701;45.588;5.186;2023-07-22T09:22:59;28.70;45.21
76759;DHT22;65701;45.588;5.186;2023-07-22T09:25:26;28.78;46.11
76759;DHT22;65701;45.588;5.186;2023-07-22T09:27:53;28.93;45.38
76759;DHT22;65701;45.588;5.186;2023-07-22T09:30:23;29.04;44.83
76759;DHT22;65701;45.588;5.186;2023-07-22T09:32:50;29.14;44.75
76759;DHT22;65701;45.588;5.186;2023-07-22T09:35:17;29.21;44.10
76759;DHT22;65701;45.588;5.186;2023-07-22T09:37:43;29.25;43.84
76759;DHT22;65701;45.588;5.186;2023-07-22T09:40:15;29.30;43.38
76759;DHT22;65701;45.588;5.186;2023-07-22T09:42:52;29.39;43.94
76759;DHT22;65701;45.588;5.186;2023-07-22T09:45:20;29.51;44.30
76759;DHT22;65701;45.588;5.186;2023-07-22T09:47:47;29.69;44.32
76759;DHT22;65701;45.588;5.186;2023-07-22T09:50:15;29.79;43.07
76759;DHT22;65701;45.588;5.186;2023-07-22T09:52:46;29.83;43.16
76759;DHT22;65701;45.588;5.186;2023-07-22T09:55:14;29.69;41.57
76759;DHT22;65701;45.588;5.186;2023-07-22T09:57:43;29.72;41.73
76759;DHT22;65701;45.588;5.186;2023-07-22T10:00:12;29.80;42.65
76759;DHT22;65701;45.588;5.186;2023-07-22T10:02:41;29.93;43.34
76759;DHT22;65701;45.588;5.186;2023-07-22T10:05:12;30.09;43.81
76759;DHT22;65701;45.588;5.186;2023-07-22T10:07:47;29.88;40.51
76759;DHT22;65701;45.588;5.186;2023-07-22T10:10:16;29.66;38.45
76759;DHT22;65701;45.588;5.186;2023-07-22T10:12:42;29.50;38.06
76759;DHT22;65701;45.588;5.186;2023-07-22T10:15:12;29.25;37.33
76759;DHT22;65701;45.588;5.186;2023-07-22T10:17:39;29.35;38.56
76759;DHT22;65701;45.588;5.186;2023-07-22T10:20:05;29.55;39.34
76759;DHT22;65701;45.588;5.186;2023-07-22T10:22:35;29.76;40.49
76759;DHT22;65701;45.588;5.186;2023-07-22T10:25:04;30.00;41.23
76759;DHT22;65701;45.588;5.186;2023-07-22T10:27:31;30.18;41.90
76759;DHT22;65701;45.588;5.186;2023-07-22T10:29:57;30.40;42.53
76759;DHT22;65701;45.588;5.186;2023-07-22T10:32:22;30.55;41.32
76759;DHT22;65701;45.588;5.186;2023-07-22T10:34:48;30.64;41.17
76759;DHT22;65701;45.588;5.186;2023-07-22T10:37:13;30.76;41.11
76759;DHT22;65701;45.588;5.186;2023-07-22T10:39:42;30.88;41.07
76759;DHT22;65701;45.588;5.186;2023-07-22T10:42:07;30.88;40.19
76759;DHT22;65701;45.588;5.186;2023-07-22T10:44:36;30.72;38.81
76759;DHT22;65701;45.588;5.186;2023-07-22T10:47:03;30.64;37.79
76759;DHT22;65701;45.588;5.186;2023-07-22T10:49:48;30.55;39.03
76759;DHT22;65701;45.588;5.186;2023-07-22T10:52:14;30.68;39.26
76759;DHT22;65701;45.588;5.186;2023-07-22T10:54:39;30.79;40.32
76759;DHT22;65701;45.588;5.186;2023-07-22T10:59:48;30.99;40.72
76759;DHT22;65701;45.588;5.186;2023-07-22T11:02:25;30.96;39.42
76759;DHT22;65701;45.588;5.186;2023-07-22T11:04:51;30.93;39.40
76759;DHT22;65701;45.588;5.186;2023-07-22T11:07:33;30.96;40.68
76759;DHT22;65701;45.588;5.186;2023-07-22T11:10:14;31.00;39.58
76759;DHT22;65701;45.588;5.186;2023-07-22T11:12:43;30.97;38.01
76759;DHT22;65701;45.588;5.186;2023-07-22T11:15:09;30.95;38.26
76759;DHT22;65701;45.588;5.186;2023-07-22T11:17:35;31.02;39.15
76759;DHT22;65701;45.588;5.186;2023-07-22T11:20:01;31.09;39.15
76759;DHT22;65701;45.588;5.186;2023-07-22T11:22:27;30.93;38.43
76759;DHT22;65701;45.588;5.186;2023-07-22T11:24:56;30.85;37.37
76759;DHT22;65701;45.588;5.186;2023-07-22T11:27:23;30.85;37.13
76759;DHT22;65701;45.588;5.186;2023-07-22T11:29:49;30.76;36.74
76759;DHT22;65701;45.588;5.186;2023-07-22T11:32:16;30.75;37.08
76759;DHT22;65701;45.588;5.186;2023-07-22T11:34:43;30.76;37.08
76759;DHT22;65701;45.588;5.186;2023-07-22T11:37:11;30.80;37.79
76759;DHT22;65701;45.588;5.186;2023-07-22T11:39:38;30.88;37.91
76759;DHT22;65701;45.588;5.186;2023-07-22T11:42:04;30.89;38.23
76759;DHT22;65701;45.588;5.186;2023-07-22T11:44:31;30.93;38.41
76759;DHT22;65701;45.588;5.186;2023-07-22T11:47:00;31.00;38.86
76759;DHT22;65701;45.588;5.186;2023-07-22T11:49:29;31.13;39.41
76759;DHT22;65701;45.588;5.186;2023-07-22T11:51:56;31.27;38.89
76759;DHT22;65701;45.588;5.186;2023-07-22T11:54:22;31.22;37.42
76759;DHT22;65701;45.588;5.186;2023-07-22T11:56:48;31.10;37.09
76759;DHT22;65701;45.588;5.186;2023-07-22T11:59:14;31.07;36.89
76759;DHT22;65701;45.588;5.186;2023-07-22T12:01:46;31.00;36.68
76759;DHT22;65701;45.588;5.186;2023-07-22T12:04:13;30.99;37.02
76759;DHT22;65701;45.588;5.186;2023-07-22T12:06:42;31.04;37.03
76759;DHT22;65701;45.588;5.186;2023-07-22T12:09:09;31.04;36.70
76759;DHT22;65701;45.588;5.186;2023-07-22T12:11:36;31.00;36.50
76759;DHT22;65701;45.588;5.186;2023-07-22T12:16:32;30.78;36.31
76759;DHT22;65701;45.588;5.186;2023-07-22T12:19:01;30.76;37.00
76759;DHT22;65701;45.588;5.186;2023-07-22T12:21:27;30.82;37.60
76759;DHT22;65701;45.588;5.186;2023-07-22T12:23:53;30.89;37.84
76759;DHT22;65701;45.588;5.186;2023-07-22T12:26:18;30.92;37.91
76759;DHT22;65701;45.588;5.186;2023-07-22T12:28:44;30.96;37.89
76759;DHT22;65701;45.588;5.186;2023-07-22T12:31:09;30.99;38.06
76759;DHT22;65701;45.588;5.186;2023-07-22T12:33:35;31.02;38.46
76759;DHT22;65701;45.588;5.186;2023-07-22T12:36:00;31.12;38.34
76759;DHT22;65701;45.588;5.186;2023-07-22T12:38:26;31.10;37.67
76759;DHT22;65701;45.588;5.186;2023-07-22T12:40:51;31.10;37.69
76759;DHT22;65701;45.588;5.186;2023-07-22T12:43:17;31.07;37.47
76759;DHT22;65701;45.588;5.186;2023-07-22T12:45:42;31.00;37.19
76759;DHT22;65701;45.588;5.186;2023-07-22T12:48:09;31.03;36.70
76759;DHT22;65701;45.588;5.186;2023-07-22T12:50:34;31.00;37.58
76759;DHT22;65701;45.588;5.186;2023-07-22T12:53:00;31.07;38.37
76759;DHT22;65701;45.588;5.186;2023-07-22T12:55:25;31.16;38.96
76759;DHT22;65701;45.588;5.186;2023-07-22T12:57:51;31.13;38.04
76759;DHT22;65701;45.588;5.186;2023-07-22T13:00:17;31.12;37.56
76759;DHT22;65701;45.588;5.186;2023-07-22T13:02:42;30.99;37.17
76759;DHT22;65701;45.588;5.186;2023-07-22T13:05:08;30.96;37.36
76759;DHT22;65701;45.588;5.186;2023-07-22T13:07:34;30.93;37.91
76759;DHT22;65701;45.588;5.186;2023-07-22T13:10:00;30.85;37.28
76759;DHT22;65701;45.588;5.186;2023-07-22T13:12:28;30.75;37.15
76759;DHT22;65701;45.588;5.186;2023-07-22T13:14:53;30.58;36.74
76759;DHT22;65701;45.588;5.186;2023-07-22T13:17:19;30.57;37.12
76759;DHT22;65701;45.588;5.186;2023-07-22T13:19:45;30.55;37.39
76759;DHT22;65701;45.588;5.186;2023-07-22T13:22:11;30.55;37.99
76759;DHT22;65701;45.588;5.186;2023-07-22T13:24:37;30.62;37.85
76759;DHT22;65701;45.588;5.186;2023-07-22T13:27:03;30.58;37.58
76759;DHT22;65701;45.588;5.186;2023-07-22T13:29:31;30.58;37.43
76759;DHT22;65701;45.588;5.186;2023-07-22T13:31:58;30.48;36.69
76759;DHT22;65701;45.588;5.186;2023-07-22T13:34:25;30.45;37.03
76759;DHT22;65701;45.588;5.186;2023-07-22T13:39:35;30.41;37.86
76759;DHT22;65701;45.588;5.186;2023-07-22T13:42:00;30.45;38.10
76759;DHT22;65701;45.588;5.186;2023-07-22T13:44:26;30.43;38.05
76759;DHT22;65701;45.588;5.186;2023-07-22T13:46:51;30.43;37.82
76759;DHT22;65701;45.588;5.186;2023-07-22T13:49:16;30.41;37.53
76759;DHT22;65701;45.588;5.186;2023-07-22T13:51:43;30.44;37.75
76759;DHT22;65701;45.588;5.186;2023-07-22T13:54:08;30.35;37.66
76759;DHT22;65701;45.588;5.186;2023-07-22T13:56:34;30.38;37.12
76759;DHT22;65701;45.588;5.186;2023-07-22T13:59:00;30.41;37.60
76759;DHT22;65701;45.588;5.186;2023-07-22T14:01:26;30.41;37.88
76759;DHT22;65701;45.588;5.186;2023-07-22T14:03:52;30.44;38.13
76759;DHT22;65701;45.588;5.186;2023-07-22T14:06:18;30.48;38.49
76759;DHT22;65701;45.588;5.186;2023-07-22T14:08:43;30.44;38.39
76759;DHT22;65701;45.588;5.186;2023-07-22T14:11:09;30.43;38.68
76759;DHT22;65701;45.588;5.186;2023-07-22T14:13:35;30.34;37.69
76759;DHT22;65701;45.588;5.186;2023-07-22T14:16:02;30.17;37.78
76759;DHT22;65701;45.588;5.186;2023-07-22T14:18:27;30.16;38.44
76759;DHT22;65701;45.588;5.186;2023-07-22T14:20:53;30.14;38.54
76759;DHT22;65701;45.588;5.186;2023-07-22T14:23:18;30.17;39.06
76759;DHT22;65701;45.588;5.186;2023-07-22T14:25:44;30.21;39.16
76759;DHT22;65701;45.588;5.186;2023-07-22T14:28:09;30.14;38.63
76759;DHT22;65701;45.588;5.186;2023-07-22T14:30:35;30.18;38.71
76759;DHT22;65701;45.588;5.186;2023-07-22T14:33:00;30.21;38.53
76759;DHT22;65701;45.588;5.186;2023-07-22T14:35:26;30.23;38.58
76759;DHT22;65701;45.588;5.186;2023-07-22T14:37:51;30.24;38.52
76759;DHT22;65701;45.588;5.186;2023-07-22T14:40:17;30.28;38.90
76759;DHT22;65701;45.588;5.186;2023-07-22T14:42:42;30.31;38.58
76759;DHT22;65701;45.588;5.186;2023-07-22T14:45:08;30.21;37.33
76759;DHT22;65701;45.588;5.186;2023-07-22T14:47:34;30.23;37.40
76759;DHT22;65701;45.588;5.186;2023-07-22T14:50:00;30.21;37.47
76759;DHT22;65701;45.588;5.186;2023-07-22T14:52:26;30.24;38.11
76759;DHT22;65701;45.588;5.186;2023-07-22T14:54:51;30.25;38.13
76759;DHT22;65701;45.588;5.186;2023-07-22T14:57:17;30.24;37.75
76759;DHT22;65701;45.588;5.186;2023-07-22T14:59:42;30.20;37.42
76759;DHT22;65701;45.588;5.186;2023-07-22T15:02:08;30.18;37.51
76759;DHT22;65701;45.588;5.186;2023-07-22T15:04:33;30.16;37.44
76759;DHT22;65701;45.588;5.186;2023-07-22T15:06:59;30.17;37.78
76759;DHT22;65701;45.588;5.186;2023-07-22T15:09:25;30.16;37.63
76759;DHT22;65701;45.588;5.186;2023-07-22T15:11:50;30.14;37.56
76759;DHT22;65701;45.588;5.186;2023-07-22T15:14:16;30.09;37.07
76759;DHT22;65701;45.588;5.186;2023-07-22T15:16:41;30.06;36.93
76759;DHT22;65701;45.588;5.186;2023-07-22T15:19:07;30.03;37.48
76759;DHT22;65701;45.588;5.186;2023-07-22T15:21:33;30.06;37.83
76759;DHT22;65701;45.588;5.186;2023-07-22T15:24:00;30.05;37.94
76759;DHT22;65701;45.588;5.186;2023-07-22T15:26:25;30.02;37.59
76759;DHT22;65701;45.588;5.186;2023-07-22T15:28:52;30.03;38.16
76759;DHT22;65701;45.588;5.186;2023-07-22T15:31:19;29.97;37.90
76759;DHT22;65701;45.588;5.186;2023-07-22T15:33:51;29.93;37.70
76759;DHT22;65701;45.588;5.186;2023-07-22T15:36:17;29.89;37.82
76759;DHT22;65701;45.588;5.186;2023-07-22T15:38:42;29.88;37.56
76759;DHT22;65701;45.588;5.186;2023-07-22T15:41:08;29.82;36.94
76759;DHT22;65701;45.588;5.186;2023-07-22T15:43:34;29.73;36.67
76759;DHT22;65701;45.588;5.186;2023-07-22T15:45:59;29.73;37.23
76759;DHT22;65701;45.588;5.186;2023-07-22T15:48:26;29.71;37.99
76759;DHT22;65701;45.588;5.186;2023-07-22T15:50:52;29.71;38.63
76759;DHT22;65701;45.588;5.186;2023-07-22T15:53:20;29.66;39.10
76759;DHT22;65701;45.588;5.186;2023-07-22T15:55:46;29.66;39.21
76759;DHT22;65701;45.588;5.186;2023-07-22T15:58:13;29.66;39.41
76759;DHT22;65701;45.588;5.186;2023-07-22T16:00:39;29.66;39.18
76759;DHT22;65701;45.588;5.186;2023-07-22T16:03:04;29.66;39.23
76759;DHT22;65701;45.588;5.186;2023-07-22T16:05:30;29.68;39.51
76759;DHT22;65701;45.588;5.186;2023-07-22T16:07:55;29.66;39.68
76759;DHT22;65701;45.588;5.186;2023-07-22T16:10:21;29.63;39.66
76759;DHT22;65701;45.588;5.186;2023-07-22T16:12:47;29.62;39.47
76759;DHT22;65701;45.588;5.186;2023-07-22T16:15:13;29.59;39.00
76759;DHT22;65701;45.588;5.186;2023-07-22T16:17:38;29.52;38.21
76759;DHT22;65701;45.588;5.186;2023-07-22T16:20:04;29.48;38.07
76759;DHT22;65701;45.588;5.186;2023-07-22T16:22:30;29.45;38.30
76759;DHT22;65701;45.588;5.186;2023-07-22T16:24:56;29.41;38.76
76759;DHT22;65701;45.588;5.186;2023-07-22T16:27:21;29.31;38.34
76759;DHT22;65701;45.588;5.186;2023-07-22T16:29:47;29.34;38.02
76759;DHT22;65701;45.588;5.186;2023-07-22T16:32:12;29.31;38.63
76759;DHT22;65701;45.588;5.186;2023-07-22T16:34:37;29.23;38.36
76759;DHT22;65701;45.588;5.186;2023-07-22T16:37:04;29.27;38.43
76759;DHT22;65701;45.588;5.186;2023-07-22T16:39:30;29.24;38.86
76759;DHT22;65701;45.588;5.186;2023-07-22T16:41:57;29.21;38.89
76759;DHT22;65701;45.588;5.186;2023-07-22T16:44:22;29.18;38.62
76759;DHT22;65701;45.588;5.186;2023-07-22T16:46:48;29.18;38.74
76759;DHT22;65701;45.588;5.186;2023-07-22T16:49:16;29.17;38.72
76759;DHT22;65701;45.588;5.186;2023-07-22T16:51:43;29.17;38.65
76759;DHT22;65701;45.588;5.186;2023-07-22T16:54:08;29.14;38.68
76759;DHT22;65701;45.588;5.186;2023-07-22T16:56:34;29.10;38.67
76759;DHT22;65701;45.588;5.186;2023-07-22T16:59:00;29.08;38.47
76759;DHT22;65701;45.588;5.186;2023-07-22T17:01:25;29.06;38.47
76759;DHT22;65701;45.588;5.186;2023-07-22T17:03:51;29.04;38.65
76759;DHT22;65701;45.588;5.186;2023-07-22T17:06:17;29.00;38.60
76759;DHT22;65701;45.588;5.186;2023-07-22T17:08:42;29.00;38.59
76759;DHT22;65701;45.588;5.186;2023-07-22T17:11:08;29.00;38.97
76759;DHT22;65701;45.588;5.186;2023-07-22T17:13:33;28.96;39.00
76759;DHT22;65701;45.588;5.186;2023-07-22T17:15:59;28.93;38.94
76759;DHT22;65701;45.588;5.186;2023-07-22T17:18:24;28.90;38.93
76759;DHT22;65701;45.588;5.186;2023-07-22T17:20:50;28.86;39.13
76759;DHT22;65701;45.588;5.186;2023-07-22T17:23:17;28.84;39.09
76759;DHT22;65701;45.588;5.186;2023-07-22T17:25:43;28.82;39.20
76759;DHT22;65701;45.588;5.186;2023-07-22T17:28:08;28.80;39.35
76759;DHT22;65701;45.588;5.186;2023-07-22T17:30:34;28.75;39.30
76759;DHT22;65701;45.588;5.186;2023-07-22T17:33:02;28.73;39.47
76759;DHT22;65701;45.588;5.186;2023-07-22T17:35:30;28.76;39.84
76759;DHT22;65701;45.588;5.186;2023-07-22T17:37:57;28.72;39.92
76759;DHT22;65701;45.588;5.186;2023-07-22T17:40:22;28.69;40.01
76759;DHT22;65701;45.588;5.186;2023-07-22T17:42:51;28.68;40.05
76759;DHT22;65701;45.588;5.186;2023-07-22T17:45:19;28.65;40.17
76759;DHT22;65701;45.588;5.186;2023-07-22T17:47:44;28.63;40.14
76759;DHT22;65701;45.588;5.186;2023-07-22T17:50:09;28.61;40.14
76759;DHT22;65701;45.588;5.186;2023-07-22T17:52:35;28.58;40.06
76759;DHT22;65701;45.588;5.186;2023-07-22T17:55:00;28.55;40.17
76759;DHT22;65701;45.588;5.186;2023-07-22T17:57:26;28.53;40.33
76759;DHT22;65701;45.588;5.186;2023-07-22T17:59:51;28.51;40.42
76759;DHT22;65701;45.588;5.186;2023-07-22T18:02:17;28.49;40.47
76759;DHT22;65701;45.588;5.186;2023-07-22T18:04:42;28.47;40.49
76759;DHT22;65701;45.588;5.186;2023-07-22T18:07:08;28.45;40.56
76759;DHT22;65701;45.588;5.186;2023-07-22T18:09:33;28.42;40.68
76759;DHT22;65701;45.588;5.186;2023-07-22T18:11:59;28.40;40.83
76759;DHT22;65701;45.588;5.186;2023-07-22T18:14:24;28.38;40.88
76759;DHT22;65701;45.588;5.186;2023-07-22T18:16:49;28.37;40.98
76759;DHT22;65701;45.588;5.186;2023-07-22T18:19:15;28.34;41.19
76759;DHT22;65701;45.588;5.186;2023-07-22T18:21:40;28.33;41.41
76759;DHT22;65701;45.588;5.186;2023-07-22T18:24:06;28.31;41.61
76759;DHT22;65701;45.588;5.186;2023-07-22T18:26:31;28.28;41.75
76759;DHT22;65701;45.588;5.186;2023-07-22T18:28:57;28.28;42.06
76759;DHT22;65701;45.588;5.186;2023-07-22T18:31:23;28.22;42.39
76759;DHT22;65701;45.588;5.186;2023-07-22T18:33:49;28.20;42.97
76759;DHT22;65701;45.588;5.186;2023-07-22T18:36:15;28.16;43.35
76759;DHT22;65701;45.588;5.186;2023-07-22T18:38:41;28.10;43.65
76759;DHT22;65701;45.588;5.186;2023-07-22T18:41:10;28.04;43.99
76759;DHT22;65701;45.588;5.186;2023-07-22T18:43:35;27.97;44.32
76759;DHT22;65701;45.588;5.186;2023-07-22T18:46:01;27.90;44.77
76759;DHT22;65701;45.588;5.186;2023-07-22T18:48:26;27.83;45.06
76759;DHT22;65701;45.588;5.186;2023-07-22T18:50:56;27.76;45.23
76759;DHT22;65701;45.588;5.186;2023-07-22T18:53:21;27.66;45.53
76759;DHT22;65701;45.588;5.186;2023-07-22T18:55:47;27.55;45.78
76759;DHT22;65701;45.588;5.186;2023-07-22T18:58:12;27.42;45.93
76759;DHT22;65701;45.588;5.186;2023-07-22T19:00:38;27.24;46.23
76759;DHT22;65701;45.588;5.186;2023-07-22T19:03:04;27.10;46.53
76759;DHT22;65701;45.588;5.186;2023-07-22T19:05:29;26.94;46.71
76759;DHT22;65701;45.588;5.186;2023-07-22T19:07:55;26.80;46.82
76759;DHT22;65701;45.588;5.186;2023-07-22T19:10:21;26.60;47.11
76759;DHT22;65701;45.588;5.186;2023-07-22T19:12:46;26.46;47.24
76759;DHT22;65701;45.588;5.186;2023-07-22T19:15:12;26.32;47.42
76759;DHT22;65701;45.588;5.186;2023-07-22T19:17:37;26.21;47.61
76759;DHT22;65701;45.588;5.186;2023-07-22T19:20:03;26.05;47.81
76759;DHT22;65701;45.588;5.186;2023-07-22T19:22:28;25.94;47.98
76759;DHT22;65701;45.588;5.186;2023-07-22T19:24:54;25.79;48.16
76759;DHT22;65701;45.588;5.186;2023-07-22T19:27:19;25.65;48.23
76759;DHT22;65701;45.588;5.186;2023-07-22T19:29:45;25.53;48.35
76759;DHT22;65701;45.588;5.186;2023-07-22T19:32:10;25.43;48.28
76759;DHT22;65701;45.588;5.186;2023-07-22T19:34:36;25.36;48.25
76759;DHT22;65701;45.588;5.186;2023-07-22T19:37:02;25.29;48.30
76759;DHT22;65701;45.588;5.186;2023-07-22T19:39:30;25.24;48.27
76759;DHT22;65701;45.588;5.186;2023-07-22T19:41:56;25.19;48.29
76759;DHT22;65701;45.588;5.186;2023-07-22T19:44:22;25.12;48.36
76759;DHT22;65701;45.588;5.186;2023-07-22T19:46:48;25.10;48.40
76759;DHT22;65701;45.588;5.186;2023-07-22T19:49:13;25.04;48.47
76759;DHT22;65701;45.588;5.186;2023-07-22T19:51:39;24.92;48.87
76759;DHT22;65701;45.588;5.186;2023-07-22T19:54:04;24.86;49.10
76759;DHT22;65701;45.588;5.186;2023-07-22T19:56:30;24.76;49.21
76759;DHT22;65701;45.588;5.186;2023-07-22T19:58:56;24.70;49.19
76759;DHT22;65701;45.588;5.186;2023-07-22T20:01:21;24.62;49.23
76759;DHT22;65701;45.588;5.186;2023-07-22T20:03:51;24.57;49.25
76759;DHT22;65701;45.588;5.186;2023-07-22T20:06:17;24.52;49.30
76759;DHT22;65701;45.588;5.186;2023-07-22T20:08:42;24.42;49.31
76759;DHT22;65701;45.588;5.186;2023-07-22T20:11:08;24.29;49.37
76759;DHT22;65701;45.588;5.186;2023-07-22T20:13:35;24.19;49.43
76759;DHT22;65701;45.588;5.186;2023-07-22T20:16:01;24.14;49.52
76759;DHT22;65701;45.588;5.186;2023-07-22T20:18:27;24.04;49.57
76759;DHT22;65701;45.588;5.186;2023-07-22T20:20:53;23.97;49.63
76759;DHT22;65701;45.588;5.186;2023-07-22T20:23:18;23.94;49.71
